createdAt,value
2019-03-30T00:02:14.797Z,9.10
2019-03-30T00:04:43.277Z,9.10
2019-03-30T00:07:11.882Z,9.00
2019-03-30T00:09:40.484Z,9.00
2019-03-30T00:12:09.054Z,9.00
2019-03-30T00:14:37.620Z,9.00
2019-03-30T00:17:06.337Z,8.90
2019-03-30T00:19:35.319Z,8.90
2019-03-30T00:22:24.041Z,8.90
2019-03-30T00:25:11.950Z,8.90
2019-03-30T00:27:59.896Z,8.90
2019-03-30T00:30:47.854Z,8.80
2019-03-30T00:33:35.794Z,8.80
2019-03-30T00:36:23.728Z,8.80
2019-03-30T00:39:11.638Z,8.70
2019-03-30T00:41:59.580Z,8.70
2019-03-30T00:44:47.512Z,8.70
2019-03-30T00:47:35.417Z,8.60
2019-03-30T00:50:23.363Z,8.60
2019-03-30T00:53:11.269Z,8.70
2019-03-30T00:55:59.206Z,8.60
2019-03-30T00:58:47.277Z,8.70
2019-03-30T01:01:36.702Z,8.70
2019-03-30T01:04:05.999Z,8.70
2019-03-30T01:06:34.608Z,8.70
2019-03-30T01:09:03.573Z,8.60
2019-03-30T01:11:51.517Z,8.60
2019-03-30T01:14:39.421Z,8.60
2019-03-30T01:17:27.383Z,8.70
2019-03-30T01:20:15.324Z,8.60
2019-03-30T01:23:03.253Z,8.60
2019-03-30T01:25:51.152Z,8.60
2019-03-30T01:28:39.088Z,8.60
2019-03-30T01:31:27.024Z,8.60
2019-03-30T01:34:14.928Z,8.50
2019-03-30T01:39:56.506Z,8.50
2019-03-30T01:42:44.483Z,8.50
2019-03-30T01:45:32.485Z,8.60
2019-03-30T01:48:20.424Z,8.60
2019-03-30T01:51:08.385Z,8.50
2019-03-30T01:53:56.293Z,8.50
2019-03-30T01:56:44.226Z,8.40
2019-03-30T01:59:32.126Z,8.40
2019-03-30T02:02:20.058Z,8.40
2019-03-30T02:05:01.319Z,8.30
2019-03-30T02:07:29.928Z,8.30
2019-03-30T02:10:38.583Z,8.20
2019-03-30T02:13:26.489Z,8.10
2019-03-30T02:16:14.441Z,8.10
2019-03-30T02:19:02.361Z,8.20
2019-03-30T02:21:50.304Z,8.20
2019-03-30T02:24:38.239Z,8.20
2019-03-30T02:27:26.257Z,8.20
2019-03-30T02:30:14.262Z,8.30
2019-03-30T02:36:09.140Z,8.30
2019-03-30T02:38:57.105Z,8.30
2019-03-30T02:41:27.287Z,8.30
2019-03-30T02:43:55.855Z,8.30
2019-03-30T02:46:24.412Z,8.30
2019-03-30T02:48:53.006Z,8.30
2019-03-30T02:51:21.574Z,8.30
2019-03-30T02:53:50.176Z,8.30
2019-03-30T02:56:18.745Z,8.30
2019-03-30T02:59:06.674Z,8.30
2019-03-30T03:01:54.602Z,8.30
2019-03-30T03:04:35.685Z,8.30
2019-03-30T03:07:16.641Z,8.20
2019-03-30T03:09:57.643Z,8.20
2019-03-30T03:12:38.789Z,8.30
2019-03-30T03:15:19.492Z,8.30
2019-03-30T03:18:00.830Z,8.30
2019-03-30T03:20:41.937Z,8.20
2019-03-30T03:23:22.356Z,8.20
2019-03-30T03:26:03.401Z,8.10
2019-03-30T03:28:44.604Z,8.10
2019-03-30T03:31:13.224Z,8.10
2019-03-30T03:33:41.799Z,8.10
2019-03-30T03:36:10.392Z,8.10
2019-03-30T03:38:38.978Z,8.10
2019-03-30T03:41:07.676Z,8.10
2019-03-30T03:43:36.250Z,8.10
2019-03-30T03:46:24.244Z,8.10
2019-03-30T03:49:12.150Z,8.10
2019-03-30T03:52:00.090Z,8.10
2019-03-30T03:54:48.037Z,8.00
2019-03-30T03:57:17.885Z,8.00
2019-03-30T03:59:49.895Z,7.90
2019-03-30T04:02:37.992Z,7.80
2019-03-30T04:05:08.310Z,7.80
2019-03-30T04:07:49.462Z,7.80
2019-03-30T04:10:30.350Z,7.80
2019-03-30T04:13:11.168Z,7.70
2019-03-30T04:15:52.356Z,7.70
2019-03-30T04:18:33.049Z,7.80
2019-03-30T04:21:13.697Z,7.80
2019-03-30T04:23:54.573Z,7.80
2019-03-30T04:26:35.322Z,7.80
2019-03-30T04:29:15.714Z,7.70
2019-03-30T04:31:56.598Z,7.70
2019-03-30T04:34:37.510Z,7.70
2019-03-30T04:37:18.492Z,7.60
2019-03-30T04:39:59.449Z,7.70
2019-03-30T04:42:40.425Z,7.70
2019-03-30T04:45:21.400Z,7.70
2019-03-30T04:48:02.643Z,7.70
2019-03-30T04:50:31.197Z,7.70
2019-03-30T04:53:19.126Z,7.60
2019-03-30T04:56:07.166Z,7.60
2019-03-30T04:58:55.092Z,7.60
2019-03-30T05:01:43.095Z,7.50
2019-03-30T05:04:23.525Z,7.60
2019-03-30T05:07:04.520Z,7.60
2019-03-30T05:09:45.535Z,7.60
2019-03-30T05:12:26.260Z,7.60
2019-03-30T05:15:06.751Z,7.60
2019-03-30T05:17:48.222Z,7.60
2019-03-30T05:20:29.048Z,7.60
2019-03-30T05:23:09.764Z,7.60
2019-03-30T05:25:50.585Z,7.60
2019-03-30T05:28:31.684Z,7.50
2019-03-30T05:31:12.459Z,7.50
2019-03-30T05:33:53.547Z,7.50
2019-03-30T05:36:34.486Z,7.50
2019-03-30T05:39:15.285Z,7.50
2019-03-30T05:41:55.869Z,7.50
2019-03-30T05:44:36.644Z,7.50
2019-03-30T05:47:17.381Z,7.50
2019-03-30T05:49:58.300Z,7.70
2019-03-30T05:52:39.369Z,8.20
2019-03-30T05:55:20.217Z,8.90
2019-03-30T05:58:00.887Z,9.30
2019-03-30T06:00:41.885Z,10.10
2019-03-30T06:03:22.981Z,10.70
2019-03-30T06:06:03.595Z,11.10
2019-03-30T06:08:32.158Z,11.60
2019-03-30T06:14:13.338Z,12.00
2019-03-30T06:17:01.277Z,12.50
2019-03-30T06:19:49.180Z,12.70
2019-03-30T06:22:40.606Z,12.90
2019-03-30T06:25:26.672Z,13.30
2019-03-30T06:28:14.601Z,13.70
2019-03-30T06:31:02.528Z,14.10
2019-03-30T06:33:50.463Z,14.40
2019-03-30T06:36:38.490Z,14.50
2019-03-30T06:39:26.430Z,14.70
2019-03-30T06:45:07.698Z,15.30
2019-03-30T06:47:55.636Z,15.50
2019-03-30T06:53:50.440Z,15.30
2019-03-30T06:56:38.336Z,15.00
2019-03-30T06:59:26.310Z,14.80
2019-03-30T07:02:14.479Z,14.60
2019-03-30T07:05:02.692Z,14.40
2019-03-30T07:07:50.892Z,14.30
2019-03-30T07:10:31.801Z,14.10
2019-03-30T07:13:12.989Z,14.00
2019-03-30T07:15:53.996Z,13.90
2019-03-30T07:18:35.480Z,14.30
2019-03-30T07:21:16.603Z,14.50
2019-03-30T07:23:57.124Z,14.70
2019-03-30T07:26:38.162Z,14.90
2019-03-30T07:29:18.934Z,14.90
2019-03-30T07:32:00.172Z,15.00
2019-03-30T07:34:41.786Z,15.30
2019-03-30T07:37:22.412Z,15.60
2019-03-30T07:40:03.729Z,15.70
2019-03-30T07:42:44.461Z,15.80
2019-03-30T07:45:25.252Z,15.90
2019-03-30T07:48:06.079Z,16.10
2019-03-30T07:50:34.775Z,16.00
2019-03-30T07:53:26.835Z,15.80
2019-03-30T07:56:12.256Z,15.80
2019-03-30T07:59:00.163Z,15.60
2019-03-30T08:01:48.099Z,15.50
2019-03-30T08:04:36.120Z,15.50
2019-03-30T08:07:35.839Z,15.60
2019-03-30T08:10:06.697Z,15.80
2019-03-30T08:12:47.432Z,15.80
2019-03-30T08:15:28.271Z,15.50
2019-03-30T08:18:08.800Z,15.30
2019-03-30T08:20:49.993Z,15.10
2019-03-30T08:23:40.260Z,15.10
2019-03-30T08:26:13.891Z,15.10
2019-03-30T08:28:54.717Z,15.20
2019-03-30T08:31:33.606Z,15.10
2019-03-30T08:34:21.537Z,15.10
2019-03-30T08:37:09.507Z,15.00
2019-03-30T08:39:57.449Z,15.10
2019-03-30T08:42:45.488Z,15.40
2019-03-30T08:45:33.435Z,15.60
2019-03-30T08:48:21.338Z,15.70
2019-03-30T08:51:09.268Z,15.80
2019-03-30T08:53:57.203Z,16.00
2019-03-30T08:56:45.139Z,16.20
2019-03-30T08:59:33.039Z,16.10
2019-03-30T09:02:21.016Z,16.20
2019-03-30T09:05:09.091Z,16.30
2019-03-30T09:07:57.024Z,16.50
2019-03-30T09:10:38.003Z,16.60
2019-03-30T09:13:19.284Z,17.00
2019-03-30T09:16:00.444Z,17.30
2019-03-30T09:18:40.892Z,17.60
2019-03-30T09:21:21.805Z,17.50
2019-03-30T09:24:09.415Z,17.40
2019-03-30T09:26:45.878Z,17.30
2019-03-30T09:29:26.779Z,17.80
2019-03-30T09:32:14.731Z,17.80
2019-03-30T09:34:50.269Z,17.50
2019-03-30T09:37:31.425Z,17.90
2019-03-30T09:40:12.042Z,17.70
2019-03-30T09:42:52.452Z,17.80
2019-03-30T09:45:33.425Z,17.80
2019-03-30T09:48:14.005Z,17.90
2019-03-30T09:50:54.499Z,17.70
2019-03-30T09:53:34.873Z,17.70
2019-03-30T09:56:16.053Z,17.80
2019-03-30T09:58:56.830Z,17.80
2019-03-30T10:01:38.828Z,17.70
2019-03-30T10:04:19.266Z,18.00
2019-03-30T10:06:59.848Z,17.50
2019-03-30T10:09:41.181Z,17.40
2019-03-30T10:12:22.543Z,17.30
2019-03-30T10:15:03.155Z,17.20
2019-03-30T10:17:44.197Z,17.50
2019-03-30T10:20:25.347Z,17.70
2019-03-30T10:23:05.837Z,17.50
2019-03-30T10:25:34.424Z,17.40
2019-03-30T10:28:03.049Z,17.30
2019-03-30T10:30:31.604Z,17.40
2019-03-30T10:33:00.163Z,17.60
2019-03-30T10:35:28.797Z,17.70
2019-03-30T10:37:57.337Z,17.80
2019-03-30T10:40:26.607Z,18.10
2019-03-30T10:43:14.579Z,18.30
2019-03-30T10:46:02.468Z,18.80
2019-03-30T10:48:50.433Z,19.10
2019-03-30T10:51:38.351Z,19.00
2019-03-30T10:54:26.295Z,19.10
2019-03-30T10:57:14.259Z,19.20
2019-03-30T11:00:02.169Z,19.00
2019-03-30T11:02:50.071Z,19.00
2019-03-30T11:05:38.007Z,19.00
2019-03-30T11:08:25.943Z,19.10
2019-03-30T11:11:06.984Z,19.40
2019-03-30T11:13:47.917Z,19.70
2019-03-30T11:16:28.818Z,19.90
2019-03-30T11:19:09.433Z,20.00
2019-03-30T11:21:50.288Z,19.80
2019-03-30T11:24:31.072Z,19.30
2019-03-30T11:27:11.700Z,19.40
2019-03-30T11:29:52.973Z,19.60
2019-03-30T11:32:33.691Z,19.70
2019-03-30T11:35:14.486Z,19.40
2019-03-30T11:37:55.509Z,19.50
2019-03-30T11:40:35.932Z,19.40
2019-03-30T11:43:16.583Z,19.50
2019-03-30T11:45:57.670Z,19.20
2019-03-30T11:48:38.452Z,19.10
2019-03-30T11:51:19.301Z,19.20
2019-03-30T11:54:00.062Z,19.50
2019-03-30T11:56:40.657Z,19.70
2019-03-30T11:59:21.396Z,19.30
2019-03-30T12:02:01.833Z,19.00
2019-03-30T12:04:42.723Z,18.80
2019-03-30T12:07:23.439Z,18.80
2019-03-30T12:10:04.601Z,19.00
2019-03-30T12:12:45.200Z,19.10
2019-03-30T12:15:26.213Z,19.40
2019-03-30T12:18:07.592Z,19.40
2019-03-30T12:20:47.976Z,19.70
2019-03-30T12:23:29.002Z,19.80
2019-03-30T12:26:09.492Z,19.40
2019-03-30T12:28:50.282Z,19.00
2019-03-30T12:31:30.573Z,18.80
2019-03-30T12:34:13.082Z,18.80
2019-03-30T12:36:55.657Z,18.80
2019-03-30T12:39:34.990Z,19.10
2019-03-30T12:42:16.132Z,19.30
2019-03-30T12:44:56.771Z,19.50
2019-03-30T12:47:37.764Z,19.60
2019-03-30T12:50:18.248Z,19.30
2019-03-30T12:52:58.953Z,19.00
2019-03-30T12:55:49.299Z,19.00
2019-03-30T12:58:23.080Z,18.90
2019-03-30T13:01:03.765Z,19.10
2019-03-30T13:03:44.292Z,19.30
2019-03-30T13:06:25.088Z,19.40
2019-03-30T13:09:06.126Z,19.50
2019-03-30T13:11:47.310Z,19.50
2019-03-30T13:14:28.654Z,19.40
2019-03-30T13:17:08.541Z,19.40
2019-03-30T13:19:56.446Z,18.90
2019-03-30T13:22:44.493Z,18.90
2019-03-30T13:25:32.387Z,18.90
2019-03-30T13:28:20.325Z,19.00
2019-03-30T13:31:08.236Z,19.10
2019-03-30T13:33:56.163Z,19.30
2019-03-30T13:39:37.866Z,19.30
2019-03-30T13:42:25.767Z,19.20
2019-03-30T13:45:33.464Z,19.30
2019-03-30T13:48:21.373Z,19.20
2019-03-30T13:51:09.310Z,19.10
2019-03-30T13:53:57.217Z,19.20
2019-03-30T13:56:45.153Z,19.40
2019-03-30T13:59:33.092Z,19.40
2019-03-30T14:02:21.106Z,19.40
2019-03-30T14:05:08.994Z,19.40
2019-03-30T14:07:37.595Z,19.50
2019-03-30T14:10:09.977Z,19.60
2019-03-30T14:12:38.608Z,19.60
2019-03-30T14:15:09.341Z,19.50
2019-03-30T14:17:37.933Z,19.50
2019-03-30T14:20:25.848Z,19.20
2019-03-30T14:23:13.757Z,18.90
2019-03-30T14:26:01.695Z,18.60
2019-03-30T14:28:49.596Z,18.50
2019-03-30T14:31:37.541Z,18.50
2019-03-30T14:34:25.680Z,18.60
2019-03-30T14:40:20.468Z,18.80
2019-03-30T14:43:08.494Z,18.90
2019-03-30T14:45:56.425Z,19.00
2019-03-30T14:48:44.333Z,19.10
2019-03-30T14:51:32.272Z,19.20
2019-03-30T14:54:20.190Z,19.20
2019-03-30T14:57:08.136Z,19.10
2019-03-30T15:02:43.741Z,19.00
2019-03-30T15:05:12.472Z,19.00
2019-03-30T15:07:41.056Z,19.00
2019-03-30T15:10:10.395Z,19.10
2019-03-30T15:12:50.848Z,19.30
2019-03-30T15:15:32.112Z,19.20
2019-03-30T15:18:13.272Z,19.20
2019-03-30T15:20:54.519Z,19.20
2019-03-30T15:23:35.297Z,19.20
2019-03-30T15:26:15.997Z,19.20
2019-03-30T15:28:57.328Z,19.10
2019-03-30T15:31:38.566Z,19.10
2019-03-30T15:34:19.681Z,19.10
2019-03-30T15:37:00.350Z,18.90
2019-03-30T15:39:41.366Z,18.90
2019-03-30T15:42:22.498Z,18.80
2019-03-30T15:45:03.633Z,18.70
2019-03-30T15:47:44.629Z,18.50
2019-03-30T15:50:25.688Z,18.40
2019-03-30T15:53:06.813Z,18.40
2019-03-30T15:55:50.287Z,18.40
2019-03-30T15:58:31.441Z,18.30
2019-03-30T16:01:11.499Z,18.20
2019-03-30T16:04:02.392Z,18.20
2019-03-30T16:06:48.976Z,18.10
2019-03-30T16:09:36.872Z,18.00
2019-03-30T16:12:17.258Z,17.90
2019-03-30T16:14:58.409Z,17.80
2019-03-30T16:17:39.189Z,17.70
2019-03-30T16:20:19.988Z,17.70
2019-03-30T16:23:00.977Z,17.60
2019-03-30T16:25:41.321Z,17.60
2019-03-30T16:28:22.613Z,17.50
2019-03-30T16:31:03.468Z,17.50
2019-03-30T16:33:46.720Z,17.50
2019-03-30T16:36:14.745Z,17.50
2019-03-30T16:39:02.694Z,17.40
2019-03-30T16:41:50.952Z,17.40
2019-03-30T16:44:38.895Z,17.30
2019-03-30T16:47:26.865Z,17.30
2019-03-30T16:50:14.975Z,17.20
2019-03-30T16:53:02.872Z,17.10
2019-03-30T16:58:44.279Z,17.00
2019-03-30T17:07:18.807Z,16.80
2019-03-30T17:10:27.469Z,16.70
2019-03-30T17:13:08.417Z,16.60
2019-03-30T17:15:49.643Z,16.60
2019-03-30T17:18:30.920Z,16.50
2019-03-30T17:21:11.683Z,16.40
2019-03-30T17:23:52.074Z,16.40
2019-03-30T17:26:33.072Z,16.40
2019-03-30T17:29:13.944Z,16.20
2019-03-30T17:31:54.538Z,16.10
2019-03-30T17:34:35.169Z,15.90
2019-03-30T17:37:16.338Z,15.80
2019-03-30T17:39:56.934Z,15.70
2019-03-30T17:42:38.899Z,15.50
2019-03-30T17:45:19.804Z,15.40
2019-03-30T17:48:00.408Z,15.30
2019-03-30T17:50:41.588Z,15.20
2019-03-30T17:53:22.865Z,15.10
2019-03-30T17:56:04.103Z,15.00
2019-03-30T17:58:44.408Z,14.90
2019-03-30T18:01:25.075Z,14.90
2019-03-30T18:04:05.669Z,14.80
2019-03-30T18:06:49.716Z,14.80
2019-03-30T18:09:30.915Z,14.70
2019-03-30T18:12:12.271Z,14.70
2019-03-30T18:14:52.990Z,14.60
2019-03-30T18:17:33.783Z,14.60
2019-03-30T18:20:15.481Z,14.50
2019-03-30T18:25:38.564Z,14.40
2019-03-30T18:28:27.017Z,14.40
2019-03-30T18:30:50.116Z,14.30
2019-03-30T18:33:18.903Z,14.20
2019-03-30T18:35:47.784Z,14.20
2019-03-30T18:38:16.815Z,14.10
2019-03-30T18:40:45.452Z,14.00
2019-03-30T18:43:14.308Z,14.00
2019-03-30T18:45:43.004Z,14.00
2019-03-30T18:48:14.247Z,14.00
2019-03-30T18:50:43.225Z,14.00
2019-03-30T18:53:12.092Z,14.00
2019-03-30T18:56:00.319Z,14.00
2019-03-30T18:58:48.373Z,13.90
2019-03-30T19:01:36.673Z,13.90
2019-03-30T19:04:40.267Z,13.90
2019-03-30T19:07:33.736Z,13.90
2019-03-30T19:10:21.675Z,13.80
2019-03-30T19:16:10.105Z,13.60
2019-03-30T19:18:50.633Z,13.50
2019-03-30T19:21:31.077Z,13.40
2019-03-30T19:24:11.815Z,13.30
2019-03-30T19:26:53.084Z,13.20
2019-03-30T19:29:33.544Z,13.10
2019-03-30T19:32:14.672Z,12.90
2019-03-30T19:34:56.077Z,12.90
2019-03-30T19:37:36.736Z,12.80
2019-03-30T19:40:18.201Z,12.70
2019-03-30T19:42:58.540Z,12.60
2019-03-30T19:45:39.991Z,12.80
2019-03-30T19:48:20.845Z,12.50
2019-03-30T19:51:01.873Z,12.40
2019-03-30T19:53:42.909Z,12.40
2019-03-30T19:56:24.208Z,12.30
2019-03-30T19:59:10.860Z,12.30
2019-03-30T20:01:47.025Z,12.20
2019-03-30T20:04:28.184Z,12.10
2019-03-30T20:07:08.937Z,12.00
2019-03-30T20:09:49.513Z,12.00
2019-03-30T20:12:30.762Z,11.90
2019-03-30T20:15:11.467Z,11.80
2019-03-30T20:17:52.402Z,11.70
2019-03-30T20:20:33.305Z,11.70
2019-03-30T20:23:14.564Z,11.60
2019-03-30T20:25:55.477Z,11.60
2019-03-30T20:28:36.656Z,11.50
2019-03-30T20:31:17.608Z,11.40
2019-03-30T20:33:58.937Z,11.30
2019-03-30T20:36:40.109Z,11.20
2019-03-30T20:39:21.476Z,11.10
2019-03-30T20:42:02.429Z,11.00
2019-03-30T20:44:46.301Z,10.90
2019-03-30T20:47:26.943Z,10.90
2019-03-30T20:50:07.379Z,10.80
2019-03-30T20:52:48.573Z,10.70
2019-03-30T20:55:29.441Z,10.70
2019-03-30T20:58:10.206Z,10.70
2019-03-30T21:00:50.689Z,10.70
2019-03-30T21:03:32.020Z,10.60
2019-03-30T21:06:12.946Z,10.50
2019-03-30T21:08:56.083Z,9.90
2019-03-30T21:11:37.173Z,10.50
2019-03-30T21:14:18.036Z,10.50
2019-03-30T21:16:58.969Z,10.40
2019-03-30T21:19:39.769Z,10.40
2019-03-30T21:22:20.356Z,10.30
2019-03-30T21:25:01.267Z,10.20
2019-03-30T21:27:42.311Z,10.20
2019-03-30T21:30:11.534Z,10.10
2019-03-30T21:32:40.116Z,10.10
2019-03-30T21:35:09.124Z,10.10
2019-03-30T21:37:37.775Z,10.00
2019-03-30T21:40:25.775Z,10.00
2019-03-30T21:46:07.779Z,10.00
2019-03-30T21:48:55.685Z,9.90
2019-03-30T21:51:43.725Z,9.90
2019-03-30T21:54:43.722Z,9.90
2019-03-30T21:57:21.397Z,9.80
2019-03-30T22:00:11.141Z,9.70
2019-03-30T22:02:59.533Z,9.70
2019-03-30T22:05:47.504Z,9.70
2019-03-30T22:08:35.430Z,9.60
2019-03-30T22:14:30.360Z,9.60
2019-03-30T22:17:11.366Z,9.60
2019-03-30T22:19:39.984Z,9.60
2019-03-30T22:22:08.605Z,9.60
2019-03-30T22:24:38.319Z,9.60
2019-03-30T22:27:07.067Z,9.50
2019-03-30T22:35:56.188Z,9.40
2019-03-30T22:38:44.173Z,9.40
2019-03-30T22:41:32.169Z,9.30
2019-03-30T22:44:20.156Z,9.30
2019-03-30T22:47:22.012Z,9.20
2019-03-30T22:49:58.616Z,9.10
2019-03-30T22:52:46.568Z,9.10
2019-03-30T22:55:34.540Z,9.00
2019-03-30T22:58:22.521Z,8.90
2019-03-30T23:04:18.907Z,8.90
2019-03-30T23:07:06.853Z,8.80
2019-03-30T23:09:54.931Z,8.70
2019-03-30T23:12:43.120Z,8.70
2019-03-30T23:15:31.212Z,8.70
2019-03-30T23:18:12.031Z,8.70
2019-03-30T23:20:53.655Z,8.70
2019-03-30T23:23:34.252Z,8.60
2019-03-30T23:26:15.496Z,8.60
2019-03-30T23:28:59.467Z,8.60
2019-03-30T23:31:27.722Z,8.50
2019-03-30T23:33:56.290Z,8.50
2019-03-30T23:36:25.069Z,8.50
2019-03-30T23:38:53.700Z,8.50
2019-03-30T23:41:55.771Z,8.50
2019-03-30T23:44:31.294Z,8.50
2019-03-30T23:47:19.193Z,8.50
2019-03-30T23:50:07.196Z,8.50
2019-03-30T23:52:55.287Z,8.40
2019-03-30T23:55:43.242Z,8.50
2019-03-30T23:58:31.129Z,8.60
